createdAt,value
2022-08-29T00:02:07.932Z,96751.28
2022-08-29T00:04:37.884Z,96772.03
2022-08-29T00:07:07.443Z,96801.63
2022-08-29T00:09:36.005Z,96690.75
2022-08-29T00:12:04.841Z,96754.03
2022-08-29T00:14:33.501Z,96770.59
2022-08-29T00:17:02.178Z,96762.72
2022-08-29T00:19:30.600Z,96773.50
2022-08-29T00:22:00.128Z,96742.00
2022-08-29T00:24:28.503Z,96819.16
2022-08-29T00:26:56.765Z,96810.44
2022-08-29T00:29:25.076Z,96780.63
2022-08-29T00:31:53.480Z,96791.56
2022-08-29T00:34:23.061Z,96811.84
2022-08-29T00:36:51.538Z,96660.75
2022-08-29T00:39:23.172Z,96756.56
2022-08-29T00:41:52.356Z,96667.16
2022-08-29T00:44:20.852Z,96794.03
2022-08-29T00:46:54.499Z,96727.94
2022-08-29T00:49:33.955Z,96742.50
2022-08-29T00:52:08.690Z,96816.00
2022-08-29T00:54:40.823Z,96781.25
2022-08-29T00:57:10.157Z,96831.91
2022-08-29T00:59:41.042Z,96772.66
2022-08-29T01:02:11.193Z,96787.19
2022-08-29T01:04:40.556Z,96796.66
2022-08-29T01:07:10.118Z,96833.63
2022-08-29T01:09:43.055Z,96777.69
2022-08-29T01:12:16.351Z,96818.38
2022-08-29T01:14:49.091Z,96790.34
2022-08-29T01:17:24.826Z,96827.44
2022-08-29T01:19:58.996Z,96757.50
2022-08-29T01:22:48.521Z,96771.78
2022-08-29T01:25:22.379Z,96780.59
2022-08-29T01:27:58.448Z,96811.16
2022-08-29T01:30:27.012Z,96754.59
2022-08-29T01:32:57.539Z,96795.88
2022-08-29T01:35:26.536Z,96811.31
2022-08-29T01:37:55.108Z,96777.13
2022-08-29T01:40:30.802Z,96776.97
2022-08-29T01:42:59.064Z,96800.63
2022-08-29T01:45:27.355Z,96746.56
2022-08-29T01:47:56.271Z,96844.13
2022-08-29T01:50:24.661Z,96804.50
2022-08-29T01:52:52.851Z,96847.00
2022-08-29T01:55:21.325Z,96729.31
2022-08-29T01:57:50.988Z,96807.72
2022-08-29T02:00:20.004Z,96849.81
2022-08-29T02:02:53.576Z,96810.47
2022-08-29T02:05:23.025Z,96741.50
2022-08-29T02:07:51.744Z,96785.44
2022-08-29T02:10:20.171Z,96779.31
2022-08-29T02:12:49.815Z,96809.16
2022-08-29T02:15:19.057Z,96811.19
2022-08-29T02:17:48.552Z,96794.38
2022-08-29T02:20:17.572Z,96781.50
2022-08-29T02:22:45.826Z,96780.31
2022-08-29T02:25:31.521Z,96754.84
2022-08-29T02:28:01.101Z,96766.72
2022-08-29T02:30:29.344Z,96748.44
2022-08-29T02:32:57.813Z,96818.03
2022-08-29T02:35:26.252Z,96813.00
2022-08-29T02:37:56.352Z,96802.78
2022-08-29T02:40:31.672Z,96792.38
2022-08-29T02:43:02.068Z,96740.59
2022-08-29T02:45:30.858Z,96777.66
2022-08-29T02:47:59.487Z,96797.41
2022-08-29T02:50:28.027Z,96794.94
2022-08-29T02:52:56.520Z,96771.56
2022-08-29T02:55:26.680Z,96815.72
2022-08-29T02:57:55.526Z,96820.94
2022-08-29T03:00:28.138Z,96761.03
2022-08-29T03:02:58.121Z,96779.47
2022-08-29T03:05:32.426Z,96783.47
2022-08-29T03:08:00.729Z,96798.22
2022-08-29T03:10:29.917Z,96774.25
2022-08-29T03:12:58.190Z,96774.78
2022-08-29T03:15:28.212Z,96786.78
2022-08-29T03:17:56.941Z,96759.13
2022-08-29T03:20:26.656Z,96648.34
2022-08-29T03:22:55.923Z,96748.09
2022-08-29T03:25:25.979Z,96780.44
2022-08-29T03:27:54.657Z,96792.25
2022-08-29T03:30:23.994Z,96733.63
2022-08-29T03:32:54.591Z,96791.00
2022-08-29T03:35:23.829Z,96716.94
2022-08-29T03:37:54.725Z,96797.69
2022-08-29T03:40:24.956Z,96746.31
2022-08-29T03:42:54.300Z,96799.59
2022-08-29T03:45:24.088Z,96788.41
2022-08-29T03:47:54.070Z,96790.16
2022-08-29T03:50:24.482Z,96801.25
2022-08-29T03:52:52.953Z,96826.13
2022-08-29T03:55:21.449Z,96777.50
2022-08-29T03:57:49.739Z,96819.50
2022-08-29T04:00:20.200Z,96803.38
2022-08-29T04:02:53.807Z,96748.13
2022-08-29T04:05:23.718Z,96800.56
2022-08-29T04:07:57.167Z,96813.34
2022-08-29T04:10:29.258Z,96807.53
2022-08-29T04:12:58.569Z,96750.13
2022-08-29T04:15:29.426Z,96813.25
2022-08-29T04:18:00.703Z,96817.69
2022-08-29T04:20:34.412Z,96840.97
2022-08-29T04:23:03.617Z,96846.22
2022-08-29T04:25:37.212Z,96828.03
2022-08-29T04:28:08.642Z,96782.34
2022-08-29T04:30:38.363Z,96797.13
2022-08-29T04:33:07.340Z,96797.63
2022-08-29T04:35:37.354Z,96822.81
2022-08-29T04:38:05.653Z,96792.66
2022-08-29T04:40:34.324Z,96839.81
2022-08-29T04:43:02.688Z,96792.34
2022-08-29T04:45:31.040Z,96824.34
2022-08-29T04:48:03.394Z,96839.22
2022-08-29T04:50:32.291Z,96851.44
2022-08-29T04:53:03.184Z,96862.53
2022-08-29T04:55:31.450Z,96748.25
2022-08-29T04:58:00.101Z,96812.53
2022-08-29T05:00:30.721Z,96826.38
2022-08-29T05:03:00.149Z,96852.94
2022-08-29T05:05:28.962Z,96856.38
2022-08-29T05:07:57.243Z,96819.06
2022-08-29T05:10:27.019Z,96872.94
2022-08-29T05:12:55.240Z,96847.84
2022-08-29T05:15:23.553Z,96819.16
2022-08-29T05:17:54.178Z,96802.72
2022-08-29T05:20:22.935Z,96811.94
2022-08-29T05:22:51.193Z,96845.47
2022-08-29T05:25:19.724Z,96827.94
2022-08-29T05:27:49.375Z,96868.56
2022-08-29T05:30:25.042Z,96859.53
2022-08-29T05:33:02.699Z,96841.00
2022-08-29T05:35:31.006Z,96827.09
2022-08-29T05:37:59.329Z,96819.13
2022-08-29T05:40:27.743Z,96837.81
2022-08-29T05:42:57.385Z,96786.13
2022-08-29T05:45:26.160Z,96864.31
2022-08-29T05:47:55.969Z,96794.00
2022-08-29T05:50:24.958Z,96865.97
2022-08-29T05:52:53.203Z,96844.53
2022-08-29T05:55:21.839Z,96870.00
2022-08-29T05:57:53.508Z,96870.56
2022-08-29T06:00:23.416Z,96754.91
2022-08-29T06:02:55.821Z,96872.56
2022-08-29T06:05:24.539Z,96837.38
2022-08-29T06:07:52.761Z,96815.06
2022-08-29T06:10:21.354Z,96830.97
2022-08-29T06:12:49.703Z,96852.44
2022-08-29T06:15:18.556Z,96812.41
2022-08-29T06:17:48.145Z,96839.19
2022-08-29T06:20:16.567Z,96831.13
2022-08-29T06:22:44.855Z,96943.34
2022-08-29T06:25:35.590Z,96795.00
2022-08-29T06:28:01.796Z,96807.25
2022-08-29T06:30:34.688Z,96878.19
2022-08-29T06:33:06.283Z,96885.66
2022-08-29T06:35:34.595Z,96880.22
2022-08-29T06:38:03.267Z,96881.72
2022-08-29T06:40:31.622Z,96879.56
2022-08-29T06:43:00.122Z,96865.91
2022-08-29T06:45:28.548Z,96855.50
2022-08-29T06:47:56.825Z,96861.69
2022-08-29T06:50:26.402Z,96808.47
2022-08-29T06:52:55.673Z,96854.63
2022-08-29T06:55:24.424Z,96840.75
2022-08-29T06:57:52.683Z,96854.06
2022-08-29T07:00:22.477Z,96862.19
2022-08-29T07:02:52.790Z,96877.78
2022-08-29T07:05:22.523Z,96889.44
2022-08-29T07:07:52.949Z,96896.88
2022-08-29T07:10:22.828Z,96886.66
2022-08-29T07:12:52.620Z,96853.28
2022-08-29T07:15:22.219Z,96883.00
2022-08-29T07:17:51.145Z,96801.44
2022-08-29T07:20:19.826Z,96907.25
2022-08-29T07:22:51.371Z,96843.63
2022-08-29T07:25:23.233Z,96885.06
2022-08-29T07:27:53.471Z,96882.38
2022-08-29T07:30:22.838Z,96885.00
2022-08-29T07:32:51.532Z,96880.84
2022-08-29T07:35:30.043Z,96862.59
2022-08-29T07:38:01.090Z,96849.44
2022-08-29T07:40:31.315Z,96816.94
2022-08-29T07:42:59.641Z,96883.31
2022-08-29T07:45:27.960Z,96864.00
2022-08-29T07:47:56.405Z,96833.44
2022-08-29T07:50:24.644Z,96833.16
2022-08-29T07:52:52.895Z,96873.13
2022-08-29T07:55:22.946Z,96883.41
2022-08-29T07:57:53.945Z,96870.91
2022-08-29T08:00:22.380Z,96867.34
2022-08-29T08:02:51.444Z,96863.28
2022-08-29T08:05:19.961Z,96870.97
2022-08-29T08:07:55.658Z,96835.88
2022-08-29T08:10:24.764Z,96820.03
2022-08-29T08:12:54.400Z,96838.00
2022-08-29T08:15:23.052Z,96868.22
2022-08-29T08:17:51.279Z,96904.03
2022-08-29T08:20:19.699Z,96884.13
2022-08-29T08:22:47.973Z,96889.16
2022-08-29T08:25:16.258Z,96966.34
2022-08-29T08:27:44.481Z,96780.94
2022-08-29T08:30:15.502Z,96840.91
2022-08-29T08:32:46.564Z,96852.94
2022-08-29T08:35:19.642Z,96861.19
2022-08-29T08:37:49.467Z,96806.25
2022-08-29T08:40:28.119Z,96864.47
2022-08-29T08:43:00.431Z,96881.09
2022-08-29T08:45:35.267Z,96831.91
2022-08-29T08:48:10.191Z,96889.59
2022-08-29T08:50:53.822Z,96908.28
2022-08-29T08:53:33.097Z,96834.03
2022-08-29T08:56:04.821Z,96879.44
2022-08-29T08:58:37.839Z,96917.25
2022-08-29T09:01:23.093Z,96862.50
2022-08-29T09:04:12.979Z,96813.38
2022-08-29T09:06:56.275Z,96856.88
2022-08-29T09:09:36.612Z,96913.34
2022-08-29T09:12:19.800Z,96835.88
2022-08-29T09:15:01.560Z,96841.69
2022-08-29T09:17:37.183Z,96851.31
2022-08-29T09:20:09.760Z,96881.47
2022-08-29T09:22:40.765Z,96894.56
2022-08-29T09:25:13.422Z,96850.06
2022-08-29T09:27:41.748Z,96822.75
2022-08-29T09:30:15.237Z,96838.44
2022-08-29T09:33:00.809Z,96872.78
2022-08-29T09:35:37.078Z,96823.38
2022-08-29T09:38:08.359Z,96849.63
2022-08-29T09:40:52.592Z,96833.56
2022-08-29T09:43:31.745Z,96847.34
2022-08-29T09:46:25.069Z,96860.22
2022-08-29T09:49:13.819Z,96789.75
2022-08-29T09:51:45.665Z,96871.63
2022-08-29T09:54:31.287Z,96898.44
2022-08-29T09:57:05.607Z,96861.03
2022-08-29T09:59:36.337Z,96907.50
2022-08-29T10:02:31.828Z,96864.19
2022-08-29T10:05:05.961Z,96859.09
2022-08-29T10:07:50.693Z,96847.88
2022-08-29T10:10:21.462Z,96788.22
2022-08-29T10:13:00.267Z,96836.59
2022-08-29T10:15:49.995Z,96825.59
2022-08-29T10:18:28.159Z,96866.06
2022-08-29T10:21:15.933Z,96895.53
2022-08-29T10:23:59.826Z,96903.84
2022-08-29T10:26:40.147Z,96794.72
2022-08-29T10:29:20.445Z,96891.44
2022-08-29T10:31:58.830Z,96856.91
2022-08-29T10:34:43.265Z,96862.16
2022-08-29T10:37:23.801Z,96894.38
2022-08-29T10:40:01.327Z,96836.47
2022-08-29T10:42:34.892Z,96826.03
2022-08-29T10:45:15.563Z,96832.25
2022-08-29T10:47:53.832Z,96839.31
2022-08-29T10:50:44.153Z,96825.06
2022-08-29T10:53:21.612Z,96870.88
2022-08-29T10:55:56.021Z,96826.03
2022-08-29T10:58:40.757Z,96884.97
2022-08-29T11:01:15.126Z,96873.28
2022-08-29T11:03:50.214Z,96854.56
2022-08-29T11:06:24.120Z,96874.78
2022-08-29T11:09:03.628Z,96887.34
2022-08-29T11:11:34.594Z,96861.97
2022-08-29T11:14:09.494Z,96850.44
2022-08-29T11:16:43.302Z,96859.44
2022-08-29T11:19:22.421Z,96846.63
2022-08-29T11:21:58.401Z,96847.81
2022-08-29T11:24:34.533Z,96856.09
2022-08-29T11:27:11.309Z,96880.22
2022-08-29T11:29:53.447Z,96811.00
2022-08-29T11:32:36.280Z,96819.63
2022-08-29T11:35:20.588Z,96855.31
2022-08-29T11:38:14.925Z,96793.84
2022-08-29T11:43:53.850Z,96789.94
2022-08-29T11:46:41.320Z,96854.19
2022-08-29T11:49:39.197Z,96905.09
2022-08-29T11:52:25.651Z,96819.28
2022-08-29T11:55:31.172Z,96819.38
2022-08-29T11:58:25.740Z,96822.31
2022-08-29T12:00:56.169Z,96818.13
2022-08-29T12:03:48.254Z,96845.00
2022-08-29T12:06:35.043Z,96868.16
2022-08-29T12:09:20.479Z,96845.84
2022-08-29T12:12:41.655Z,96766.34
2022-08-29T12:15:52.879Z,96830.63
2022-08-29T12:18:45.064Z,96871.66
2022-08-29T12:21:45.583Z,96827.06
2022-08-29T12:24:43.541Z,96818.34
2022-08-29T12:28:01.401Z,96808.56
2022-08-29T12:30:34.284Z,96830.44
2022-08-29T12:33:17.751Z,96739.22
2022-08-29T12:36:14.579Z,96801.56
2022-08-29T12:38:59.861Z,96799.78
2022-08-29T12:41:46.789Z,96815.59
2022-08-29T12:44:21.705Z,96806.31
2022-08-29T12:46:55.434Z,96824.59
2022-08-29T12:49:29.679Z,96784.22
2022-08-29T12:52:01.897Z,96789.16
2022-08-29T12:54:34.222Z,96775.63
2022-08-29T12:57:04.885Z,96780.97
2022-08-29T12:59:35.101Z,96820.03
2022-08-29T13:02:03.752Z,96714.41
2022-08-29T13:04:33.961Z,96784.75
2022-08-29T13:07:05.366Z,96798.69
2022-08-29T13:09:39.363Z,96770.16
2022-08-29T13:12:12.027Z,96819.44
2022-08-29T13:15:00.681Z,96798.00
2022-08-29T13:17:34.966Z,96684.13
2022-08-29T13:20:47.535Z,96687.38
2022-08-29T13:23:27.193Z,96667.59
2022-08-29T13:26:00.373Z,96695.75
2022-08-29T13:28:36.711Z,96739.09
2022-08-29T13:31:09.343Z,96742.91
2022-08-29T13:33:39.252Z,96725.28
2022-08-29T13:36:39.918Z,96717.38
2022-08-29T13:39:44.614Z,96725.91
2022-08-29T13:42:22.573Z,96752.72
2022-08-29T13:45:23.878Z,96726.19
2022-08-29T13:48:13.699Z,96730.34
2022-08-29T13:50:42.593Z,96727.53
2022-08-29T13:53:12.307Z,96765.09
2022-08-29T13:55:43.368Z,96746.13
2022-08-29T13:58:14.928Z,96754.50
2022-08-29T14:00:44.433Z,96723.44
2022-08-29T14:03:16.966Z,96773.25
2022-08-29T14:05:45.690Z,96751.31
2022-08-29T14:08:15.555Z,96716.81
2022-08-29T14:10:44.927Z,96734.78
2022-08-29T14:13:13.356Z,96674.03
2022-08-29T14:15:41.765Z,96753.03
2022-08-29T14:18:10.330Z,96717.84
2022-08-29T14:20:39.111Z,96723.66
2022-08-29T14:23:07.668Z,96714.34
2022-08-29T14:25:37.322Z,96708.75
2022-08-29T14:28:06.345Z,96738.09
2022-08-29T14:30:34.639Z,96762.41
2022-08-29T14:33:02.941Z,96722.88
2022-08-29T14:35:32.178Z,96692.59
2022-08-29T14:38:02.721Z,96719.66
2022-08-29T14:40:32.584Z,96690.34
2022-08-29T14:43:03.352Z,96623.84
2022-08-29T14:45:33.230Z,96746.28
2022-08-29T14:48:02.525Z,96714.09
2022-08-29T14:50:31.315Z,96665.63
2022-08-29T14:53:00.067Z,96625.91
2022-08-29T14:55:28.802Z,96716.81
2022-08-29T14:57:57.125Z,96716.09
2022-08-29T15:00:29.976Z,96733.47
2022-08-29T15:02:58.483Z,96723.56
2022-08-29T15:05:27.105Z,96671.59
2022-08-29T15:07:56.088Z,96749.97
2022-08-29T15:10:25.896Z,96714.03
2022-08-29T15:12:54.670Z,96675.47
2022-08-29T15:15:29.152Z,96726.19
2022-08-29T15:18:01.975Z,96678.81
2022-08-29T15:20:36.222Z,96704.78
2022-08-29T15:23:05.672Z,96679.13
2022-08-29T15:25:34.424Z,96656.16
2022-08-29T15:28:05.587Z,96686.41
2022-08-29T15:30:35.312Z,96664.31
2022-08-29T15:33:05.265Z,96735.81
2022-08-29T15:35:33.890Z,96714.81
2022-08-29T15:38:02.475Z,96676.69
2022-08-29T15:40:30.892Z,96709.28
2022-08-29T15:42:59.188Z,96686.91
2022-08-29T15:45:27.479Z,96671.09
2022-08-29T15:47:55.873Z,96675.44
2022-08-29T15:50:27.871Z,96649.06
2022-08-29T15:52:57.097Z,96697.19
2022-08-29T15:55:25.362Z,96694.00
2022-08-29T15:57:53.807Z,96717.38
2022-08-29T16:00:29.775Z,96684.06
2022-08-29T16:03:03.151Z,96702.56
2022-08-29T16:05:34.295Z,96665.22
2022-08-29T16:08:03.494Z,96691.56
2022-08-29T16:10:32.405Z,96684.81
2022-08-29T16:13:00.760Z,96718.91
2022-08-29T16:15:31.352Z,96725.69
2022-08-29T16:18:00.782Z,96695.94
2022-08-29T16:20:30.143Z,96669.31
2022-08-29T16:23:00.593Z,96681.28
2022-08-29T16:25:31.054Z,96706.81
2022-08-29T16:28:00.935Z,96654.59
2022-08-29T16:30:30.213Z,96669.44
2022-08-29T16:32:59.043Z,96657.88
2022-08-29T16:35:52.608Z,96663.28
2022-08-29T16:38:22.286Z,96714.97
2022-08-29T16:40:50.840Z,96599.72
2022-08-29T16:43:19.540Z,96676.81
2022-08-29T16:45:47.935Z,96671.66
2022-08-29T16:48:17.712Z,96687.38
2022-08-29T16:50:47.174Z,96694.38
2022-08-29T16:53:15.467Z,96720.38
2022-08-29T16:55:45.020Z,96666.22
2022-08-29T16:58:30.837Z,96588.38
2022-08-29T17:00:59.235Z,96653.28
2022-08-29T17:03:27.807Z,96664.09
2022-08-29T17:05:56.061Z,96673.28
2022-08-29T17:08:23.310Z,96687.38
2022-08-29T17:10:51.828Z,96691.44
2022-08-29T17:13:18.957Z,96655.72
2022-08-29T17:15:46.121Z,96696.03
2022-08-29T17:18:14.569Z,96674.06
2022-08-29T17:20:46.267Z,96686.50
2022-08-29T17:23:15.745Z,96690.00
2022-08-29T17:25:44.134Z,96619.13
2022-08-29T17:28:18.263Z,96674.25
2022-08-29T17:30:47.748Z,96663.16
2022-08-29T17:33:16.294Z,96698.50
2022-08-29T17:35:44.671Z,96655.75
2022-08-29T17:38:14.976Z,96673.06
2022-08-29T17:40:44.167Z,96646.50
2022-08-29T17:43:14.448Z,96664.63
2022-08-29T17:45:43.205Z,96673.97
2022-08-29T17:48:12.147Z,96656.78
2022-08-29T17:50:41.959Z,96669.91
2022-08-29T17:53:10.494Z,96643.44
2022-08-29T17:55:39.018Z,96660.63
2022-08-29T17:58:07.462Z,96649.72
2022-08-29T18:00:37.233Z,96675.94
2022-08-29T18:03:07.385Z,96698.25
2022-08-29T18:05:35.719Z,96735.06
2022-08-29T18:08:05.110Z,96696.44
2022-08-29T18:10:33.561Z,96662.56
2022-08-29T18:13:01.861Z,96697.56
2022-08-29T18:15:30.107Z,96713.41
2022-08-29T18:18:05.532Z,96702.31
2022-08-29T18:20:33.922Z,96701.25
2022-08-29T18:23:02.229Z,96688.31
2022-08-29T18:25:30.556Z,96664.13
2022-08-29T18:27:58.805Z,96656.16
2022-08-29T18:30:27.571Z,96682.28
2022-08-29T18:32:56.004Z,96690.09
2022-08-29T18:35:25.852Z,96743.84
2022-08-29T18:37:54.088Z,96734.63
2022-08-29T18:40:22.443Z,96739.59
2022-08-29T18:42:52.599Z,96693.41
2022-08-29T18:45:21.456Z,96721.19
2022-08-29T18:47:49.710Z,96640.81
2022-08-29T18:50:36.596Z,96688.56
2022-08-29T18:53:10.793Z,96710.91
2022-08-29T18:55:39.764Z,96627.03
2022-08-29T18:58:09.585Z,96730.28
2022-08-29T19:00:38.255Z,96778.81
2022-08-29T19:03:07.229Z,96739.56
2022-08-29T19:05:36.463Z,96768.56
2022-08-29T19:08:06.406Z,96722.19
2022-08-29T19:10:35.698Z,96713.53
2022-08-29T19:13:04.033Z,96753.06
2022-08-29T19:15:32.341Z,96697.69
2022-08-29T19:18:01.086Z,96744.44
2022-08-29T19:20:47.679Z,96688.63
2022-08-29T19:23:18.407Z,96749.03
2022-08-29T19:25:47.154Z,96782.16
2022-08-29T19:28:17.089Z,96769.41
2022-08-29T19:30:46.444Z,96726.75
2022-08-29T19:33:17.885Z,96711.09
2022-08-29T19:35:49.034Z,96739.44
2022-08-29T19:38:21.000Z,96725.22
2022-08-29T19:40:52.346Z,96755.41
2022-08-29T19:43:20.751Z,96790.31
2022-08-29T19:45:49.056Z,96720.22
2022-08-29T19:48:20.384Z,96815.19
2022-08-29T19:50:49.958Z,96803.69
2022-08-29T19:53:26.919Z,96804.72
2022-08-29T19:55:56.831Z,96697.13
2022-08-29T19:58:31.404Z,96764.22
2022-08-29T20:01:02.648Z,96753.97
2022-08-29T20:03:32.591Z,96775.50
2022-08-29T20:06:06.163Z,96794.06
2022-08-29T20:08:38.031Z,96681.38
2022-08-29T20:11:06.820Z,96760.94
2022-08-29T20:13:36.319Z,96779.00
2022-08-29T20:16:13.110Z,96763.63
2022-08-29T20:18:41.945Z,96766.38
2022-08-29T20:21:10.512Z,96782.88
2022-08-29T20:23:49.140Z,96770.56
2022-08-29T20:26:18.668Z,96773.34
2022-08-29T20:28:47.414Z,96815.59
2022-08-29T20:31:15.841Z,96789.56
2022-08-29T20:33:44.884Z,96757.81
2022-08-29T20:36:32.235Z,96812.75
2022-08-29T20:39:01.937Z,96797.06
2022-08-29T20:41:30.223Z,96791.72
2022-08-29T20:44:06.817Z,96800.56
2022-08-29T20:46:37.539Z,96742.81
2022-08-29T20:49:05.808Z,96744.66
2022-08-29T20:51:36.333Z,96750.09
2022-08-29T20:54:06.686Z,96808.75
2022-08-29T20:56:35.023Z,96781.63
2022-08-29T20:59:03.949Z,96793.06
2022-08-29T21:01:33.205Z,96779.63
2022-08-29T21:04:21.170Z,96835.16
2022-08-29T21:06:50.298Z,96867.94
2022-08-29T21:09:19.893Z,96766.47
2022-08-29T21:11:48.109Z,96808.66
2022-08-29T21:14:16.549Z,96749.63
2022-08-29T21:16:46.156Z,96819.56
2022-08-29T21:19:14.424Z,96784.53
2022-08-29T21:21:43.326Z,96822.25
2022-08-29T21:24:11.947Z,96795.13
2022-08-29T21:26:41.618Z,96800.31
2022-08-29T21:29:10.192Z,96573.69
2022-08-29T21:31:39.473Z,96806.34
2022-08-29T21:34:10.355Z,96806.16
2022-08-29T21:36:40.328Z,96791.75
2022-08-29T21:39:11.577Z,96813.00
2022-08-29T21:41:45.863Z,96813.88
2022-08-29T21:44:15.869Z,96810.00
2022-08-29T21:46:46.633Z,96830.19
2022-08-29T21:49:19.518Z,96800.50
2022-08-29T21:51:49.004Z,96795.34
2022-08-29T21:54:19.070Z,96786.50
2022-08-29T21:56:50.261Z,96784.53
2022-08-29T21:59:20.782Z,96824.88
2022-08-29T22:04:42.781Z,96799.69
2022-08-29T22:07:23.557Z,96807.25
2022-08-29T22:09:53.581Z,96799.22
2022-08-29T22:12:24.976Z,96828.75
2022-08-29T22:15:25.543Z,96803.13
2022-08-29T22:17:53.821Z,96780.59
2022-08-29T22:20:22.552Z,96778.69
2022-08-29T22:22:51.304Z,96832.94
2022-08-29T22:25:20.205Z,96800.94
2022-08-29T22:27:49.813Z,96809.81
2022-08-29T22:30:18.681Z,96825.63
2022-08-29T22:32:52.801Z,96830.94
2022-08-29T22:35:22.863Z,96855.75
2022-08-29T22:37:54.311Z,96851.44
2022-08-29T22:40:23.032Z,96803.91
2022-08-29T22:42:53.119Z,96814.16
2022-08-29T22:45:21.710Z,96866.84
2022-08-29T22:47:49.918Z,96819.06
2022-08-29T22:50:21.120Z,96841.22
2022-08-29T22:52:50.451Z,96808.00
2022-08-29T22:57:49.894Z,96806.78
2022-08-29T23:00:23.143Z,96816.59
2022-08-29T23:02:53.086Z,96830.38
2022-08-29T23:05:24.161Z,96755.13
2022-08-29T23:07:52.581Z,96954.38
2022-08-29T23:10:22.123Z,96803.72
2022-08-29T23:12:50.711Z,96777.66
2022-08-29T23:15:20.641Z,96813.53
2022-08-29T23:17:48.927Z,96735.03
2022-08-29T23:20:19.204Z,96743.66
2022-08-29T23:22:48.604Z,96823.78
2022-08-29T23:25:18.189Z,96843.66
2022-08-29T23:27:46.441Z,96821.31
2022-08-29T23:30:15.721Z,96807.59
2022-08-29T23:32:45.359Z,96833.84
2022-08-29T23:35:13.841Z,96786.09
2022-08-29T23:37:42.062Z,96801.06
2022-08-29T23:40:11.394Z,96824.41
2022-08-29T23:42:40.188Z,96855.13
2022-08-29T23:45:11.268Z,96813.75
2022-08-29T23:47:39.514Z,96775.22
2022-08-29T23:50:10.847Z,96746.97
2022-08-29T23:52:39.176Z,96814.13
2022-08-29T23:55:15.156Z,96745.66
2022-08-29T23:57:43.996Z,96795.47
